createdAt,value
2022-12-01T00:01:20.863Z,59.87
2022-12-01T00:03:49.009Z,61.57
2022-12-01T00:06:19.584Z,59.37
2022-12-01T00:09:03.339Z,60.43
2022-12-01T00:11:33.188Z,59.20
2022-12-01T00:14:06.304Z,61.47
2022-12-01T00:16:37.306Z,60.10
2022-12-01T00:19:05.317Z,61.00
2022-12-01T00:21:33.221Z,59.73
2022-12-01T00:24:01.140Z,59.57
2022-12-01T00:26:29.035Z,59.07
2022-12-01T00:29:00.547Z,59.40
2022-12-01T00:31:28.930Z,59.50
2022-12-01T00:33:57.064Z,60.00
2022-12-01T00:36:25.390Z,61.23
2022-12-01T00:38:53.945Z,59.23
2022-12-01T00:41:22.189Z,59.23
2022-12-01T00:43:51.189Z,58.83
2022-12-01T00:46:20.512Z,57.57
2022-12-01T00:48:48.603Z,59.57
2022-12-01T00:51:16.513Z,59.30
2022-12-01T00:53:44.464Z,59.27
2022-12-01T00:56:12.394Z,61.40
2022-12-01T00:58:40.290Z,58.20
2022-12-01T01:01:08.485Z,58.57
2022-12-01T01:03:37.883Z,56.33
2022-12-01T01:06:07.283Z,56.07
2022-12-01T01:08:35.549Z,56.57
2022-12-01T01:11:03.767Z,57.33
2022-12-01T01:13:32.105Z,55.13
2022-12-01T01:16:00.899Z,56.40
2022-12-01T01:18:29.318Z,56.17
2022-12-01T01:21:00.187Z,55.40
2022-12-01T01:23:28.449Z,53.13
2022-12-01T01:26:03.226Z,55.07
2022-12-01T01:28:32.286Z,53.50
2022-12-01T01:31:00.608Z,52.03
2022-12-01T01:33:28.569Z,51.03
2022-12-01T01:36:01.345Z,52.97
2022-12-01T01:38:29.665Z,50.47
2022-12-01T01:40:57.645Z,51.57
2022-12-01T01:43:41.685Z,49.10
2022-12-01T01:46:12.679Z,48.80
2022-12-01T01:48:43.535Z,49.13
2022-12-01T01:51:15.633Z,47.03
2022-12-01T01:53:45.910Z,49.93
2022-12-01T01:56:13.910Z,46.83
2022-12-01T01:58:42.679Z,46.60
2022-12-01T02:01:10.613Z,45.63
2022-12-01T02:03:41.934Z,45.00
2022-12-01T02:06:13.768Z,43.53
2022-12-01T02:08:41.830Z,44.40
2022-12-01T02:11:35.045Z,43.77
2022-12-01T02:14:10.719Z,43.10
2022-12-01T02:16:47.198Z,43.37
2022-12-01T02:19:42.197Z,40.50
2022-12-01T02:22:23.449Z,41.10
2022-12-01T02:25:19.488Z,40.73
2022-12-01T02:28:21.452Z,39.43
2022-12-01T02:30:55.724Z,39.33
2022-12-01T02:33:30.537Z,39.77
2022-12-01T02:36:05.199Z,38.63
2022-12-01T02:38:40.356Z,37.47
2022-12-01T02:41:16.073Z,37.67
2022-12-01T02:43:53.072Z,36.77
2022-12-01T02:46:28.459Z,37.37
2022-12-01T02:49:00.602Z,35.90
2022-12-01T02:51:31.835Z,37.00
2022-12-01T02:54:02.526Z,37.47
2022-12-01T02:56:30.617Z,36.10
2022-12-01T02:58:58.524Z,35.43
2022-12-01T03:01:41.509Z,37.50
2022-12-01T03:04:27.388Z,36.63
2022-12-01T03:07:06.026Z,37.30
2022-12-01T03:09:44.980Z,36.80
2022-12-01T03:12:22.005Z,36.03
2022-12-01T03:15:03.380Z,35.90
2022-12-01T03:17:40.017Z,37.00
2022-12-01T03:20:13.877Z,35.27
2022-12-01T03:22:47.802Z,36.53
2022-12-01T03:25:16.788Z,35.10
2022-12-01T03:28:13.877Z,34.67
2022-12-01T03:30:37.955Z,36.80
2022-12-01T03:33:12.760Z,35.37
2022-12-01T03:35:44.858Z,36.23
2022-12-01T03:38:19.131Z,35.40
2022-12-01T03:40:50.090Z,36.43
2022-12-01T03:43:22.439Z,35.43
2022-12-01T03:45:57.537Z,36.43
2022-12-01T03:48:28.280Z,35.93
2022-12-01T03:51:14.083Z,35.70
2022-12-01T03:53:51.884Z,35.43
2022-12-01T03:56:22.707Z,36.40
2022-12-01T03:58:54.148Z,35.77
2022-12-01T04:01:22.587Z,36.57
2022-12-01T04:03:51.958Z,35.67
2022-12-01T04:06:20.120Z,37.60
2022-12-01T04:08:48.022Z,35.17
2022-12-01T04:11:33.438Z,37.40
2022-12-01T04:14:01.422Z,37.40
2022-12-01T04:16:29.336Z,37.30
2022-12-01T04:18:58.686Z,37.97
2022-12-01T04:21:26.646Z,37.03
2022-12-01T04:24:03.572Z,36.23
2022-12-01T04:26:33.761Z,37.87
2022-12-01T04:29:02.314Z,38.13
2022-12-01T04:31:30.459Z,37.83
2022-12-01T04:34:00.603Z,36.80
2022-12-01T04:36:31.322Z,37.63
2022-12-01T04:38:59.510Z,37.83
2022-12-01T04:41:27.682Z,40.03
2022-12-01T04:43:55.870Z,37.33
2022-12-01T04:46:24.419Z,38.60
2022-12-01T04:48:53.170Z,38.13
2022-12-01T04:51:23.200Z,38.70
2022-12-01T04:53:51.318Z,36.93
2022-12-01T04:56:19.374Z,39.90
2022-12-01T04:58:47.538Z,38.53
2022-12-01T05:01:17.821Z,38.30
2022-12-01T05:03:49.416Z,38.47
2022-12-01T05:06:19.329Z,38.40
2022-12-01T05:08:49.407Z,38.50
2022-12-01T05:11:17.974Z,38.03
2022-12-01T05:13:47.393Z,38.50
2022-12-01T05:16:16.673Z,38.40
2022-12-01T05:18:48.113Z,38.47
2022-12-01T05:21:15.204Z,37.23
2022-12-01T05:23:44.639Z,37.80
2022-12-01T05:26:13.922Z,37.43
2022-12-01T05:28:42.035Z,37.77
2022-12-01T05:31:09.936Z,36.47
2022-12-01T05:33:37.871Z,37.47
2022-12-01T05:36:06.560Z,35.83
2022-12-01T05:38:34.566Z,35.63
2022-12-01T05:41:02.455Z,36.10
2022-12-01T05:43:31.751Z,36.73
2022-12-01T05:46:00.596Z,36.00
2022-12-01T05:48:28.878Z,34.67
2022-12-01T05:50:56.825Z,36.20
2022-12-01T05:53:24.735Z,34.93
2022-12-01T05:55:54.404Z,36.23
2022-12-01T05:58:22.426Z,36.20
2022-12-01T06:00:51.691Z,36.20
2022-12-01T06:03:19.709Z,35.40
2022-12-01T06:05:47.759Z,34.90
2022-12-01T06:08:15.681Z,33.33
2022-12-01T06:10:43.826Z,34.50
2022-12-01T06:13:11.893Z,33.50
2022-12-01T06:15:39.802Z,33.60
2022-12-01T06:18:09.083Z,32.47
2022-12-01T06:20:37.075Z,32.07
2022-12-01T06:23:05.357Z,33.17
2022-12-01T06:25:33.740Z,33.20
2022-12-01T06:28:02.545Z,33.33
2022-12-01T06:30:30.463Z,33.83
2022-12-01T06:32:58.406Z,33.80
2022-12-01T06:35:27.705Z,34.03
2022-12-01T06:37:55.624Z,32.50
2022-12-01T06:40:23.801Z,32.07
2022-12-01T06:42:51.739Z,33.07
2022-12-01T06:45:19.802Z,33.27
2022-12-01T06:47:48.477Z,33.80
2022-12-01T06:50:16.436Z,32.03
2022-12-01T06:52:45.798Z,31.20
2022-12-01T06:55:13.853Z,31.73
2022-12-01T06:57:43.350Z,32.40
2022-12-01T07:00:14.000Z,32.23
2022-12-01T07:02:42.310Z,30.43
2022-12-01T07:05:11.057Z,30.37
2022-12-01T07:07:40.377Z,30.47
2022-12-01T07:10:11.244Z,32.03
2022-12-01T07:12:39.409Z,32.13
2022-12-01T07:15:08.993Z,31.47
2022-12-01T07:17:37.723Z,32.17
2022-12-01T07:20:06.579Z,31.63
2022-12-01T07:22:34.670Z,32.87
2022-12-01T07:25:02.633Z,31.43
2022-12-01T07:27:32.662Z,31.73
2022-12-01T07:30:00.636Z,32.83
2022-12-01T07:32:28.605Z,32.43
2022-12-01T07:34:56.533Z,30.73
2022-12-01T07:37:24.456Z,32.37
2022-12-01T07:39:52.431Z,32.30
2022-12-01T07:42:20.352Z,31.13
2022-12-01T07:44:49.584Z,31.67
2022-12-01T07:47:17.498Z,30.87
2022-12-01T07:49:49.703Z,29.80
2022-12-01T07:52:18.155Z,30.77
2022-12-01T07:54:46.084Z,30.47
2022-12-01T07:57:15.013Z,30.90
2022-12-01T07:59:42.863Z,29.80
2022-12-01T08:02:12.464Z,29.73
2022-12-01T08:04:40.444Z,28.97
2022-12-01T08:07:08.343Z,29.40
2022-12-01T08:09:36.408Z,29.40
2022-12-01T08:12:04.597Z,29.97
2022-12-01T08:14:32.554Z,30.30
2022-12-01T08:17:00.491Z,29.80
2022-12-01T08:19:29.723Z,29.60
2022-12-01T08:21:58.338Z,29.83
2022-12-01T08:24:26.686Z,28.83
2022-12-01T08:26:54.609Z,30.83
2022-12-01T08:29:22.556Z,30.13
2022-12-01T08:31:50.572Z,29.60
2022-12-01T08:34:18.664Z,28.50
2022-12-01T08:36:48.328Z,31.07
2022-12-01T08:39:16.393Z,29.50
2022-12-01T08:41:44.336Z,30.20
2022-12-01T08:44:12.488Z,28.33
2022-12-01T08:46:40.540Z,29.87
2022-12-01T08:49:08.533Z,29.97
2022-12-01T08:51:37.413Z,28.90
2022-12-01T08:54:06.920Z,30.10
2022-12-01T08:56:36.926Z,31.10
2022-12-01T08:59:05.755Z,29.87
2022-12-01T09:01:34.022Z,31.33
2022-12-01T09:04:08.258Z,31.67
2022-12-01T09:06:40.533Z,32.70
2022-12-01T09:09:11.269Z,32.03
2022-12-01T09:11:39.255Z,31.23
2022-12-01T09:14:07.326Z,30.33
2022-12-01T09:16:35.552Z,29.73
2022-12-01T09:19:03.525Z,31.37
2022-12-01T09:21:33.620Z,30.13
2022-12-01T09:24:02.651Z,30.93
2022-12-01T09:26:32.867Z,30.43
2022-12-01T09:29:03.487Z,30.63
2022-12-01T09:31:31.790Z,31.07
2022-12-01T09:34:01.498Z,29.93
2022-12-01T09:36:30.940Z,29.83
2022-12-01T09:38:59.343Z,30.50
2022-12-01T09:41:30.426Z,31.17
2022-12-01T09:44:05.838Z,30.20
2022-12-01T09:46:41.858Z,29.47
2022-12-01T09:49:16.685Z,29.30
2022-12-01T09:51:44.751Z,28.80
2022-12-01T09:54:15.624Z,27.37
2022-12-01T09:56:47.106Z,28.73
2022-12-01T09:59:22.662Z,28.57
2022-12-01T10:01:54.567Z,28.10
2022-12-01T10:04:35.896Z,28.17
2022-12-01T10:07:07.413Z,26.10
2022-12-01T10:09:42.305Z,27.93
2022-12-01T10:12:15.855Z,28.43
2022-12-01T10:14:47.566Z,27.63
2022-12-01T10:17:28.573Z,28.27
2022-12-01T10:20:04.243Z,26.63
2022-12-01T10:23:07.414Z,26.97
2022-12-01T10:25:47.137Z,28.77
2022-12-01T10:28:43.640Z,26.63
2022-12-01T10:31:19.521Z,26.77
2022-12-01T10:33:58.169Z,24.17
2022-12-01T10:36:27.304Z,25.40
2022-12-01T10:38:55.913Z,23.33
2022-12-01T10:41:28.001Z,23.60
2022-12-01T10:44:00.830Z,23.00
2022-12-01T10:46:36.939Z,23.47
2022-12-01T10:49:09.892Z,25.57
2022-12-01T10:51:54.222Z,23.67
2022-12-01T10:54:24.320Z,22.80
2022-12-01T10:56:56.966Z,22.70
2022-12-01T10:59:29.277Z,23.03
2022-12-01T11:01:59.828Z,23.87
2022-12-01T11:04:37.516Z,23.20
2022-12-01T11:07:06.055Z,22.70
2022-12-01T11:09:34.004Z,21.93
2022-12-01T11:12:03.697Z,22.70
2022-12-01T11:14:42.572Z,23.90
2022-12-01T11:17:28.122Z,24.67
2022-12-01T11:19:56.174Z,24.13
2022-12-01T11:22:30.697Z,25.40
2022-12-01T11:25:02.287Z,25.47
2022-12-01T11:27:34.328Z,25.80
2022-12-01T11:30:05.906Z,24.87
2022-12-01T11:32:38.162Z,25.30
2022-12-01T11:35:17.049Z,26.33
2022-12-01T11:38:13.332Z,26.90
2022-12-01T11:40:45.598Z,26.30
2022-12-01T11:43:25.187Z,28.63
2022-12-01T11:45:54.742Z,28.00
2022-12-01T11:48:29.469Z,27.27
2022-12-01T11:51:06.905Z,28.73
2022-12-01T11:53:37.676Z,28.10
2022-12-01T11:56:17.931Z,27.53
2022-12-01T11:58:48.737Z,28.47
2022-12-01T12:01:31.494Z,29.07
2022-12-01T12:04:13.404Z,28.53
2022-12-01T12:06:49.662Z,29.70
2022-12-01T12:09:33.351Z,30.33
2022-12-01T12:12:12.317Z,29.50
2022-12-01T12:14:54.588Z,30.10
2022-12-01T12:17:36.627Z,28.33
2022-12-01T12:20:30.656Z,28.47
2022-12-01T12:23:24.743Z,29.37
2022-12-01T12:26:03.563Z,28.47
2022-12-01T12:29:14.679Z,26.83
2022-12-01T12:31:53.669Z,26.33
2022-12-01T12:34:40.774Z,25.37
2022-12-01T12:37:20.982Z,26.77
2022-12-01T12:40:23.364Z,25.80
2022-12-01T12:43:04.940Z,26.60
2022-12-01T12:45:41.701Z,26.23
2022-12-01T12:48:24.801Z,28.07
2022-12-01T12:51:01.858Z,27.63
2022-12-01T12:53:38.443Z,28.00
2022-12-01T12:56:11.243Z,27.30
2022-12-01T12:58:43.099Z,25.93
2022-12-01T13:01:17.093Z,25.67
2022-12-01T13:03:52.750Z,24.57
2022-12-01T13:06:27.247Z,24.00
2022-12-01T13:09:00.418Z,24.00
2022-12-01T13:11:33.593Z,23.00
2022-12-01T13:14:07.269Z,23.87
2022-12-01T13:16:39.387Z,25.17
2022-12-01T13:19:15.180Z,23.83
2022-12-01T13:21:44.931Z,24.17
2022-12-01T13:24:23.064Z,25.10
2022-12-01T13:26:56.490Z,26.87
2022-12-01T13:29:27.163Z,27.47
2022-12-01T13:31:56.152Z,25.10
2022-12-01T13:34:27.450Z,24.57
2022-12-01T13:36:56.776Z,22.77
2022-12-01T13:39:28.767Z,19.63
2022-12-01T13:42:07.069Z,18.07
2022-12-01T13:44:41.511Z,18.23
2022-12-01T13:47:32.233Z,17.73
2022-12-01T13:50:54.589Z,17.80
2022-12-01T13:53:29.259Z,19.17
2022-12-01T13:56:07.615Z,19.70
2022-12-01T13:58:46.237Z,19.83
2022-12-01T14:01:56.861Z,19.73
2022-12-01T14:04:30.741Z,18.27
2022-12-01T14:07:20.556Z,20.33
2022-12-01T14:09:52.049Z,20.53
2022-12-01T14:12:23.144Z,21.27
2022-12-01T14:14:55.428Z,22.67
2022-12-01T14:17:27.742Z,21.43
2022-12-01T14:19:57.274Z,21.70
2022-12-01T14:22:35.008Z,22.57
2022-12-01T14:25:07.769Z,23.10
2022-12-01T14:27:38.795Z,23.13
2022-12-01T14:30:45.897Z,22.73
2022-12-01T14:33:43.307Z,23.03
2022-12-01T14:36:20.281Z,23.90
2022-12-01T14:38:49.532Z,24.17
2022-12-01T14:41:23.958Z,25.03
2022-12-01T14:44:05.748Z,23.70
2022-12-01T14:46:42.310Z,24.83
2022-12-01T14:49:15.396Z,23.87
2022-12-01T14:51:47.117Z,23.57
2022-12-01T14:54:23.472Z,24.00
2022-12-01T14:56:55.239Z,22.80
2022-12-01T14:59:26.404Z,22.87
2022-12-01T15:01:57.384Z,22.33
2022-12-01T15:04:26.220Z,21.73
2022-12-01T15:06:56.483Z,23.17
2022-12-01T15:09:35.126Z,22.20
2022-12-01T15:12:08.021Z,23.60
2022-12-01T15:14:37.520Z,22.90
2022-12-01T15:17:09.062Z,23.60
2022-12-01T15:19:40.332Z,22.67
2022-12-01T15:22:13.764Z,22.30
2022-12-01T15:24:42.946Z,21.20
2022-12-01T15:27:27.058Z,19.07
2022-12-01T15:29:55.826Z,18.90
2022-12-01T15:32:25.038Z,19.27
2022-12-01T15:34:55.175Z,19.30
2022-12-01T15:37:25.790Z,19.50
2022-12-01T15:40:00.309Z,19.27
2022-12-01T15:42:41.489Z,19.50
2022-12-01T15:45:19.233Z,20.47
2022-12-01T15:47:49.093Z,20.20
2022-12-01T15:50:33.532Z,21.30
2022-12-01T15:53:04.192Z,21.63
2022-12-01T15:55:35.378Z,20.87
2022-12-01T15:58:09.043Z,21.00
2022-12-01T16:00:37.239Z,19.80
2022-12-01T16:03:05.715Z,22.30
2022-12-01T16:05:36.560Z,23.47
2022-12-01T16:08:15.957Z,21.67
2022-12-01T16:10:44.212Z,21.30
2022-12-01T16:13:40.391Z,19.07
2022-12-01T16:16:37.882Z,18.03
2022-12-01T16:19:23.996Z,18.40
2022-12-01T16:21:55.732Z,17.83
2022-12-01T16:24:27.864Z,18.40
2022-12-01T16:26:58.325Z,18.63
2022-12-01T16:29:29.564Z,19.10
2022-12-01T16:32:20.344Z,19.33
2022-12-01T16:34:49.300Z,18.57
2022-12-01T16:37:18.086Z,20.70
2022-12-01T16:39:46.020Z,21.50
2022-12-01T16:42:16.495Z,21.43
2022-12-01T16:44:46.694Z,20.70
2022-12-01T16:47:17.495Z,21.83
2022-12-01T16:49:45.825Z,23.23
2022-12-01T16:55:02.295Z,20.80
2022-12-01T16:57:30.605Z,20.33
2022-12-01T16:59:59.905Z,20.47
2022-12-01T17:02:27.950Z,20.77
2022-12-01T17:04:56.121Z,20.60
2022-12-01T17:07:24.092Z,21.43
2022-12-01T17:09:52.023Z,23.17
2022-12-01T17:12:20.307Z,23.97
2022-12-01T17:14:48.436Z,23.90
2022-12-01T17:17:18.041Z,23.67
2022-12-01T17:19:46.026Z,23.73
2022-12-01T17:22:13.904Z,23.33
2022-12-01T17:24:41.845Z,23.77
2022-12-01T17:27:10.124Z,26.10
2022-12-01T17:29:43.054Z,26.80
2022-12-01T17:32:14.443Z,26.73
2022-12-01T17:34:43.705Z,28.00
2022-12-01T17:37:16.128Z,26.90
2022-12-01T17:39:47.181Z,26.03
2022-12-01T17:42:15.074Z,25.97
2022-12-01T17:44:42.913Z,25.63
2022-12-01T17:47:11.517Z,27.00
2022-12-01T17:49:39.982Z,26.43
2022-12-01T17:52:09.364Z,24.60
2022-12-01T17:54:37.613Z,24.63
2022-12-01T17:57:07.423Z,25.63
2022-12-01T17:59:35.574Z,25.10
2022-12-01T18:02:03.592Z,25.90
2022-12-01T18:04:32.074Z,25.13
2022-12-01T18:07:00.642Z,23.43
2022-12-01T18:09:29.963Z,23.00
2022-12-01T18:12:00.956Z,22.43
2022-12-01T18:14:32.808Z,22.57
2022-12-01T18:17:00.821Z,20.93
2022-12-01T18:19:28.690Z,22.83
2022-12-01T18:21:56.586Z,22.53
2022-12-01T18:24:25.212Z,22.63
2022-12-01T18:26:56.157Z,23.80
2022-12-01T18:29:26.250Z,23.57
2022-12-01T18:31:55.192Z,24.97
2022-12-01T18:34:23.089Z,24.03
2022-12-01T18:36:50.980Z,25.17
2022-12-01T18:39:19.038Z,26.43
2022-12-01T18:41:47.072Z,26.80
2022-12-01T18:44:16.441Z,27.13
2022-12-01T18:46:44.369Z,27.57
2022-12-01T18:49:13.212Z,27.73
2022-12-01T18:51:41.372Z,26.47
2022-12-01T18:54:12.958Z,26.37
2022-12-01T18:56:40.922Z,26.17
2022-12-01T18:59:11.198Z,26.47
2022-12-01T19:01:44.162Z,28.00
2022-12-01T19:04:12.466Z,25.53
2022-12-01T19:06:42.829Z,27.00
2022-12-01T19:09:12.541Z,27.33
2022-12-01T19:11:41.686Z,27.87
2022-12-01T19:14:13.379Z,27.30
2022-12-01T19:16:42.806Z,27.63
2022-12-01T19:19:11.345Z,27.60
2022-12-01T19:21:39.344Z,26.67
2022-12-01T19:24:08.026Z,26.63
2022-12-01T19:26:35.995Z,27.60
2022-12-01T19:29:04.669Z,25.70
2022-12-01T19:31:32.717Z,23.17
2022-12-01T19:34:04.764Z,25.87
2022-12-01T19:36:33.097Z,23.37
2022-12-01T19:39:03.937Z,24.47
2022-12-01T19:41:35.368Z,23.37
2022-12-01T19:44:06.642Z,24.40
2022-12-01T19:46:34.894Z,23.77
2022-12-01T19:49:05.757Z,23.00
2022-12-01T19:51:35.644Z,23.50
2022-12-01T19:54:03.663Z,22.97
2022-12-01T19:56:32.391Z,23.40
2022-12-01T19:59:00.881Z,23.87
2022-12-01T20:01:29.441Z,25.40
2022-12-01T20:03:57.391Z,22.87
2022-12-01T20:06:28.164Z,24.70
2022-12-01T20:08:57.425Z,24.97
2022-12-01T20:11:26.099Z,25.20
2022-12-01T20:13:54.678Z,24.03
2022-12-01T20:16:24.336Z,23.97
2022-12-01T20:18:53.287Z,23.03
2022-12-01T20:21:22.971Z,23.83
2022-12-01T20:23:55.798Z,25.07
2022-12-01T20:26:28.925Z,25.17
2022-12-01T20:29:01.202Z,25.63
2022-12-01T20:31:31.178Z,24.77
2022-12-01T20:34:01.038Z,25.20
2022-12-01T20:36:29.601Z,25.57
2022-12-01T20:38:58.884Z,26.43
2022-12-01T20:41:27.001Z,23.87
2022-12-01T20:43:54.964Z,25.07
2022-12-01T20:46:23.063Z,23.73
2022-12-01T20:48:51.221Z,24.33
2022-12-01T20:51:19.587Z,25.47
2022-12-01T20:54:12.401Z,24.80
2022-12-01T20:56:36.968Z,24.93
2022-12-01T20:59:05.083Z,26.57
2022-12-01T21:01:33.316Z,25.10
2022-12-01T21:04:01.427Z,26.27
2022-12-01T21:06:29.891Z,27.23
2022-12-01T21:08:57.893Z,26.47
2022-12-01T21:11:41.410Z,25.87
2022-12-01T21:14:16.853Z,27.13
2022-12-01T21:16:48.336Z,25.57
2022-12-01T21:19:23.019Z,26.93
2022-12-01T21:21:50.987Z,26.07
2022-12-01T21:24:22.224Z,27.30
2022-12-01T21:26:53.325Z,26.47
2022-12-01T21:29:25.005Z,26.33
2022-12-01T21:31:54.854Z,27.23
2022-12-01T21:34:25.213Z,27.23
2022-12-01T21:36:57.325Z,28.73
2022-12-01T21:39:26.513Z,28.00
2022-12-01T21:41:57.949Z,28.33
2022-12-01T21:44:37.335Z,28.73
2022-12-01T21:47:16.948Z,28.30
2022-12-01T21:49:45.722Z,26.53
2022-12-01T21:52:18.056Z,27.70
2022-12-01T21:54:46.252Z,28.40
2022-12-01T21:57:30.482Z,26.67
2022-12-01T22:00:30.881Z,27.27
2022-12-01T22:03:37.241Z,27.53
2022-12-01T22:06:35.798Z,28.57
2022-12-01T22:09:13.794Z,29.63
2022-12-01T22:11:44.056Z,31.00
2022-12-01T22:14:16.973Z,29.23
2022-12-01T22:16:56.442Z,29.70
2022-12-01T22:19:32.695Z,28.43
2022-12-01T22:22:02.714Z,26.90
2022-12-01T22:24:35.569Z,27.23
2022-12-01T22:27:28.341Z,28.03
2022-12-01T22:30:01.844Z,27.90
2022-12-01T22:32:45.545Z,29.67
2022-12-01T22:35:23.285Z,29.97
2022-12-01T22:37:53.573Z,30.77
2022-12-01T22:40:40.189Z,31.57
2022-12-01T22:43:28.198Z,28.13
2022-12-01T22:46:08.332Z,28.83
2022-12-01T22:48:41.699Z,30.40
2022-12-01T22:51:22.672Z,29.43
2022-12-01T22:53:52.861Z,28.90
2022-12-01T22:56:28.039Z,29.90
2022-12-01T22:58:56.274Z,31.13
2022-12-01T23:01:28.112Z,30.63
2022-12-01T23:04:09.540Z,28.37
2022-12-01T23:07:03.522Z,29.80
2022-12-01T23:09:37.876Z,29.47
2022-12-01T23:12:25.747Z,28.77
2022-12-01T23:14:55.518Z,29.10
2022-12-01T23:17:26.286Z,27.23
2022-12-01T23:20:13.544Z,29.97
2022-12-01T23:22:41.728Z,27.00
2022-12-01T23:25:14.621Z,26.33
2022-12-01T23:27:43.296Z,26.83
2022-12-01T23:30:12.917Z,25.80
2022-12-01T23:32:41.016Z,25.43
2022-12-01T23:35:16.542Z,27.53
2022-12-01T23:37:47.497Z,25.23
2022-12-01T23:40:20.708Z,25.17
2022-12-01T23:42:49.212Z,25.83
2022-12-01T23:45:20.568Z,22.93
2022-12-01T23:47:48.835Z,23.67
2022-12-01T23:50:22.071Z,22.30
2022-12-01T23:52:50.359Z,23.00
2022-12-01T23:55:22.894Z,22.30
2022-12-01T23:57:52.050Z,22.57
